sensor_id;sensor_type;location;lat;lon;timestamp;temperature;humidity
75899;DHT22;64576;50.460;4.866;2023-11-22T00:00:43;5.08;99.99
75899;DHT22;64576;50.460;4.866;2023-11-22T00:03:09;5.03;99.99
75899;DHT22;64576;50.460;4.866;2023-11-22T00:05:34;4.94;99.99
75899;DHT22;64576;50.460;4.866;2023-11-22T00:07:59;4.84;99.99
75899;DHT22;64576;50.460;4.866;2023-11-22T00:10:25;4.89;99.99
75899;DHT22;64576;50.460;4.866;2023-11-22T00:12:50;4.81;99.99
75899;DHT22;64576;50.460;4.866;2023-11-22T00:15:16;4.76;99.99
75899;DHT22;64576;50.460;4.866;2023-11-22T00:17:46;4.72;99.99
75899;DHT22;64576;50.460;4.866;2023-11-22T00:20:12;4.61;99.99
75899;DHT22;64576;50.460;4.866;2023-11-22T00:22:38;4.51;99.99
75899;DHT22;64576;50.460;4.866;2023-11-22T00:25:04;4.53;99.99
75899;DHT22;64576;50.460;4.866;2023-11-22T00:27:32;4.49;99.99
75899;DHT22;64576;50.460;4.866;2023-11-22T00:29:58;4.49;99.99
75899;DHT22;64576;50.460;4.866;2023-11-22T00:32:24;4.49;99.99
75899;DHT22;64576;50.460;4.866;2023-11-22T00:34:51;4.49;99.99
75899;DHT22;64576;50.460;4.866;2023-11-22T00:37:16;4.44;99.99
75899;DHT22;64576;50.460;4.866;2023-11-22T00:39:42;4.42;99.99
75899;DHT22;64576;50.460;4.866;2023-11-22T00:42:08;4.35;99.99
75899;DHT22;64576;50.460;4.866;2023-11-22T00:44:33;4.37;99.99
75899;DHT22;64576;50.460;4.866;2023-11-22T00:46:58;4.37;99.99
75899;DHT22;64576;50.460;4.866;2023-11-22T00:49:24;4.45;99.99
75899;DHT22;64576;50.460;4.866;2023-11-22T00:51:49;4.52;99.99
75899;DHT22;64576;50.460;4.866;2023-11-22T00:54:16;4.59;99.99
75899;DHT22;64576;50.460;4.866;2023-11-22T00:56:42;4.62;99.99
75899;DHT22;64576;50.460;4.866;2023-11-22T00:59:07;4.65;99.99
75899;DHT22;64576;50.460;4.866;2023-11-22T01:01:34;4.69;99.99
75899;DHT22;64576;50.460;4.866;2023-11-22T01:03:59;4.69;99.99
75899;DHT22;64576;50.460;4.866;2023-11-22T01:06:24;4.72;99.99
75899;DHT22;64576;50.460;4.866;2023-11-22T01:08:50;4.80;99.99
75899;DHT22;64576;50.460;4.866;2023-11-22T01:11:16;4.77;99.99
75899;DHT22;64576;50.460;4.866;2023-11-22T01:13:41;4.73;99.99
75899;DHT22;64576;50.460;4.866;2023-11-22T01:16:11;4.80;99.99
75899;DHT22;64576;50.460;4.866;2023-11-22T01:18:38;4.77;99.99
75899;DHT22;64576;50.460;4.866;2023-11-22T01:21:03;4.79;99.99
75899;DHT22;64576;50.460;4.866;2023-11-22T01:23:30;4.75;99.99
75899;DHT22;64576;50.460;4.866;2023-11-22T01:25:55;4.76;99.99
75899;DHT22;64576;50.460;4.866;2023-11-22T01:28:20;4.77;99.99
75899;DHT22;64576;50.460;4.866;2023-11-22T01:30:46;4.77;99.99
75899;DHT22;64576;50.460;4.866;2023-11-22T01:33:12;4.77;99.99
75899;DHT22;64576;50.460;4.866;2023-11-22T01:35:37;4.83;99.99
75899;DHT22;64576;50.460;4.866;2023-11-22T01:38:04;4.79;99.99
75899;DHT22;64576;50.460;4.866;2023-11-22T01:40:30;4.77;99.99
75899;DHT22;64576;50.460;4.866;2023-11-22T01:42:55;4.76;99.99
75899;DHT22;64576;50.460;4.866;2023-11-22T01:45:21;4.80;99.99
75899;DHT22;64576;50.460;4.866;2023-11-22T01:47:47;4.76;99.99
75899;DHT22;64576;50.460;4.866;2023-11-22T01:50:14;4.76;99.99
75899;DHT22;64576;50.460;4.866;2023-11-22T01:52:40;4.76;99.99
75899;DHT22;64576;50.460;4.866;2023-11-22T01:55:06;4.76;99.99
75899;DHT22;64576;50.460;4.866;2023-11-22T01:57:33;4.84;99.99
75899;DHT22;64576;50.460;4.866;2023-11-22T02:00:03;4.75;99.99
75899;DHT22;64576;50.460;4.866;2023-11-22T02:02:33;4.75;99.99
75899;DHT22;64576;50.460;4.866;2023-11-22T02:04:59;4.65;99.99
75899;DHT22;64576;50.460;4.866;2023-11-22T02:07:27;4.66;99.99
75899;DHT22;64576;50.460;4.866;2023-11-22T02:09:52;4.63;99.99
75899;DHT22;64576;50.460;4.866;2023-11-22T02:12:18;4.59;99.99
75899;DHT22;64576;50.460;4.866;2023-11-22T02:14:44;4.58;99.99
75899;DHT22;64576;50.460;4.866;2023-11-22T02:17:10;4.56;99.99
75899;DHT22;64576;50.460;4.866;2023-11-22T02:19:35;4.61;99.99
75899;DHT22;64576;50.460;4.866;2023-11-22T02:22:02;4.53;99.99
75899;DHT22;64576;50.460;4.866;2023-11-22T02:24:27;4.52;99.99
75899;DHT22;64576;50.460;4.866;2023-11-22T02:26:52;4.52;99.99
75899;DHT22;64576;50.460;4.866;2023-11-22T02:29:18;4.44;99.99
75899;DHT22;64576;50.460;4.866;2023-11-22T02:31:43;4.49;99.99
75899;DHT22;64576;50.460;4.866;2023-11-22T02:34:09;4.51;99.99
75899;DHT22;64576;50.460;4.866;2023-11-22T02:36:34;4.44;99.99
75899;DHT22;64576;50.460;4.866;2023-11-22T02:39:00;4.51;99.99
75899;DHT22;64576;50.460;4.866;2023-11-22T02:41:29;4.55;99.99
75899;DHT22;64576;50.460;4.866;2023-11-22T02:43:57;4.56;99.99
75899;DHT22;64576;50.460;4.866;2023-11-22T02:46:23;4.61;99.99
75899;DHT22;64576;50.460;4.866;2023-11-22T02:48:49;4.53;99.99
75899;DHT22;64576;50.460;4.866;2023-11-22T02:51:14;4.37;99.99
75899;DHT22;64576;50.460;4.866;2023-11-22T02:53:40;4.31;99.99
75899;DHT22;64576;50.460;4.866;2023-11-22T02:56:09;4.20;99.99
75899;DHT22;64576;50.460;4.866;2023-11-22T02:58:34;4.27;99.99
75899;DHT22;64576;50.460;4.866;2023-11-22T03:01:00;4.22;99.99
75899;DHT22;64576;50.460;4.866;2023-11-22T03:03:26;4.18;99.99
75899;DHT22;64576;50.460;4.866;2023-11-22T03:05:52;4.15;99.99
75899;DHT22;64576;50.460;4.866;2023-11-22T03:08:17;4.15;99.99
75899;DHT22;64576;50.460;4.866;2023-11-22T03:10:43;4.18;99.99
75899;DHT22;64576;50.460;4.866;2023-11-22T03:13:08;4.20;99.99
75899;DHT22;64576;50.460;4.866;2023-11-22T03:15:36;4.05;99.99
75899;DHT22;64576;50.460;4.866;2023-11-22T03:18:02;4.08;99.99
75899;DHT22;64576;50.460;4.866;2023-11-22T03:20:29;4.15;99.99
75899;DHT22;64576;50.460;4.866;2023-11-22T03:22:56;4.07;99.99
75899;DHT22;64576;50.460;4.866;2023-11-22T03:25:21;4.01;99.99
75899;DHT22;64576;50.460;4.866;2023-11-22T03:27:47;4.04;99.99
75899;DHT22;64576;50.460;4.866;2023-11-22T03:30:12;4.08;99.99
75899;DHT22;64576;50.460;4.866;2023-11-22T03:32:40;4.01;99.99
75899;DHT22;64576;50.460;4.866;2023-11-22T03:35:07;3.96;99.99
75899;DHT22;64576;50.460;4.866;2023-11-22T03:37:33;3.89;99.99
75899;DHT22;64576;50.460;4.866;2023-11-22T03:39:58;3.91;99.99
75899;DHT22;64576;50.460;4.866;2023-11-22T03:42:24;3.97;99.99
75899;DHT22;64576;50.460;4.866;2023-11-22T03:44:49;3.93;99.99
75899;DHT22;64576;50.460;4.866;2023-11-22T03:47:15;4.03;99.99
75899;DHT22;64576;50.460;4.866;2023-11-22T03:49:41;4.11;99.99
75899;DHT22;64576;50.460;4.866;2023-11-22T03:52:08;4.04;99.99
75899;DHT22;64576;50.460;4.866;2023-11-22T03:54:34;4.03;99.99
75899;DHT22;64576;50.460;4.866;2023-11-22T03:56:59;3.93;99.99
75899;DHT22;64576;50.460;4.866;2023-11-22T03:59:24;3.96;99.99
75899;DHT22;64576;50.460;4.866;2023-11-22T04:01:50;3.86;99.99
75899;DHT22;64576;50.460;4.866;2023-11-22T04:04:16;3.76;99.99
75899;DHT22;64576;50.460;4.866;2023-11-22T04:06:41;3.75;99.99
75899;DHT22;64576;50.460;4.866;2023-11-22T04:09:06;3.77;99.99
75899;DHT22;64576;50.460;4.866;2023-11-22T04:11:33;3.75;99.99
75899;DHT22;64576;50.460;4.866;2023-11-22T04:14:00;3.77;99.99
75899;DHT22;64576;50.460;4.866;2023-11-22T04:16:25;3.70;99.99
75899;DHT22;64576;50.460;4.866;2023-11-22T04:18:51;3.73;99.99
75899;DHT22;64576;50.460;4.866;2023-11-22T04:21:17;3.66;99.99
75899;DHT22;64576;50.460;4.866;2023-11-22T04:23:42;3.72;99.99
75899;DHT22;64576;50.460;4.866;2023-11-22T04:26:07;3.65;99.99
75899;DHT22;64576;50.460;4.866;2023-11-22T04:28:33;3.66;99.99
75899;DHT22;64576;50.460;4.866;2023-11-22T04:30:58;3.58;99.99
75899;DHT22;64576;50.460;4.866;2023-11-22T04:33:24;3.58;99.99
75899;DHT22;64576;50.460;4.866;2023-11-22T04:35:50;3.60;99.99
75899;DHT22;64576;50.460;4.866;2023-11-22T04:38:16;3.63;99.99
75899;DHT22;64576;50.460;4.866;2023-11-22T04:40:41;3.63;99.99
75899;DHT22;64576;50.460;4.866;2023-11-22T04:43:08;3.55;99.99
75899;DHT22;64576;50.460;4.866;2023-11-22T04:45:33;3.48;99.99
75899;DHT22;64576;50.460;4.866;2023-11-22T04:47:59;3.46;99.99
75899;DHT22;64576;50.460;4.866;2023-11-22T04:50:25;3.49;99.99
75899;DHT22;64576;50.460;4.866;2023-11-22T04:52:50;3.45;99.99
75899;DHT22;64576;50.460;4.866;2023-11-22T04:55:16;3.43;99.99
75899;DHT22;64576;50.460;4.866;2023-11-22T04:57:42;3.49;99.99
75899;DHT22;64576;50.460;4.866;2023-11-22T05:00:08;3.54;99.99
75899;DHT22;64576;50.460;4.866;2023-11-22T05:02:34;3.58;99.99
75899;DHT22;64576;50.460;4.866;2023-11-22T05:04:59;3.58;99.99
75899;DHT22;64576;50.460;4.866;2023-11-22T05:07:25;3.63;99.99
75899;DHT22;64576;50.460;4.866;2023-11-22T05:09:50;3.54;99.99
75899;DHT22;64576;50.460;4.866;2023-11-22T05:12:15;3.54;99.99
75899;DHT22;64576;50.460;4.866;2023-11-22T05:14:41;3.49;99.99
75899;DHT22;64576;50.460;4.866;2023-11-22T05:17:09;3.45;99.99
75899;DHT22;64576;50.460;4.866;2023-11-22T05:19:34;3.48;99.99
75899;DHT22;64576;50.460;4.866;2023-11-22T05:21:59;3.42;99.99
75899;DHT22;64576;50.460;4.866;2023-11-22T05:24:25;3.36;99.99
75899;DHT22;64576;50.460;4.866;2023-11-22T05:26:51;3.36;99.99
75899;DHT22;64576;50.460;4.866;2023-11-22T05:29:16;3.20;99.99
75899;DHT22;64576;50.460;4.866;2023-11-22T05:31:42;3.38;99.99
75899;DHT22;64576;50.460;4.866;2023-11-22T05:34:07;3.41;99.99
75899;DHT22;64576;50.460;4.866;2023-11-22T05:36:33;3.36;99.99
75899;DHT22;64576;50.460;4.866;2023-11-22T05:38:59;3.39;99.99
75899;DHT22;64576;50.460;4.866;2023-11-22T05:41:27;3.45;99.99
75899;DHT22;64576;50.460;4.866;2023-11-22T05:43:52;3.42;99.99
75899;DHT22;64576;50.460;4.866;2023-11-22T05:46:22;3.46;99.99
75899;DHT22;64576;50.460;4.866;2023-11-22T05:48:51;3.46;99.99
75899;DHT22;64576;50.460;4.866;2023-11-22T05:51:17;3.36;99.99
75899;DHT22;64576;50.460;4.866;2023-11-22T05:53:43;3.36;99.99
75899;DHT22;64576;50.460;4.866;2023-11-22T05:56:08;3.43;99.99
75899;DHT22;64576;50.460;4.866;2023-11-22T05:58:37;3.46;99.99
75899;DHT22;64576;50.460;4.866;2023-11-22T06:01:07;3.49;99.99
75899;DHT22;64576;50.460;4.866;2023-11-22T06:03:33;3.43;99.99
75899;DHT22;64576;50.460;4.866;2023-11-22T06:05:59;3.43;99.99
75899;DHT22;64576;50.460;4.866;2023-11-22T06:08:24;3.45;99.99
75899;DHT22;64576;50.460;4.866;2023-11-22T06:10:50;3.42;99.99
75899;DHT22;64576;50.460;4.866;2023-11-22T06:13:16;3.48;99.99
75899;DHT22;64576;50.460;4.866;2023-11-22T06:15:42;3.43;99.99
75899;DHT22;64576;50.460;4.866;2023-11-22T06:18:07;3.42;99.99
75899;DHT22;64576;50.460;4.866;2023-11-22T06:20:33;3.48;99.99
75899;DHT22;64576;50.460;4.866;2023-11-22T06:22:58;3.46;99.99
75899;DHT22;64576;50.460;4.866;2023-11-22T06:25:24;3.46;99.99
75899;DHT22;64576;50.460;4.866;2023-11-22T06:27:49;3.41;99.99
75899;DHT22;64576;50.460;4.866;2023-11-22T06:30:15;3.49;99.99
75899;DHT22;64576;50.460;4.866;2023-11-22T06:32:40;3.48;99.99
75899;DHT22;64576;50.460;4.866;2023-11-22T06:35:10;3.55;99.99
75899;DHT22;64576;50.460;4.866;2023-11-22T06:37:39;3.55;99.99
75899;DHT22;64576;50.460;4.866;2023-11-22T06:40:05;3.54;99.99
75899;DHT22;64576;50.460;4.866;2023-11-22T06:42:31;3.51;99.99
75899;DHT22;64576;50.460;4.866;2023-11-22T06:44:58;3.49;99.99
75899;DHT22;64576;50.460;4.866;2023-11-22T06:47:25;3.51;99.99
75899;DHT22;64576;50.460;4.866;2023-11-22T06:49:52;3.45;99.99
75899;DHT22;64576;50.460;4.866;2023-11-22T06:52:17;3.48;99.99
75899;DHT22;64576;50.460;4.866;2023-11-22T06:54:44;3.63;99.99
75899;DHT22;64576;50.460;4.866;2023-11-22T06:57:09;3.68;99.99
75899;DHT22;64576;50.460;4.866;2023-11-22T06:59:35;3.56;99.99
75899;DHT22;64576;50.460;4.866;2023-11-22T07:02:00;3.60;99.99
75899;DHT22;64576;50.460;4.866;2023-11-22T07:04:25;3.60;99.99
75899;DHT22;64576;50.460;4.866;2023-11-22T07:06:51;3.65;99.99
75899;DHT22;64576;50.460;4.866;2023-11-22T07:09:16;3.72;99.99
75899;DHT22;64576;50.460;4.866;2023-11-22T07:11:41;3.66;99.99
75899;DHT22;64576;50.460;4.866;2023-11-22T07:14:09;3.63;99.99
75899;DHT22;64576;50.460;4.866;2023-11-22T07:16:34;3.60;99.99
75899;DHT22;64576;50.460;4.866;2023-11-22T07:19:00;3.66;99.99
75899;DHT22;64576;50.460;4.866;2023-11-22T07:21:32;3.66;99.99
75899;DHT22;64576;50.460;4.866;2023-11-22T07:23:58;3.68;99.99
75899;DHT22;64576;50.460;4.866;2023-11-22T07:26:26;3.69;99.99
75899;DHT22;64576;50.460;4.866;2023-11-22T07:28:52;3.69;99.99
75899;DHT22;64576;50.460;4.866;2023-11-22T07:31:18;3.72;99.99
75899;DHT22;64576;50.460;4.866;2023-11-22T07:33:44;3.79;99.99
75899;DHT22;64576;50.460;4.866;2023-11-22T07:36:09;3.69;99.99
75899;DHT22;64576;50.460;4.866;2023-11-22T07:38:41;3.69;99.99
75899;DHT22;64576;50.460;4.866;2023-11-22T07:41:25;3.72;99.99
75899;DHT22;64576;50.460;4.866;2023-11-22T07:44:34;3.80;99.99
75899;DHT22;64576;50.460;4.866;2023-11-22T07:47:25;3.75;99.99
75899;DHT22;64576;50.460;4.866;2023-11-22T07:49:54;3.94;99.99
75899;DHT22;64576;50.460;4.866;2023-11-22T07:52:26;4.00;99.99
75899;DHT22;64576;50.460;4.866;2023-11-22T07:55:28;4.04;99.99
75899;DHT22;64576;50.460;4.866;2023-11-22T07:58:09;4.05;99.99
75899;DHT22;64576;50.460;4.866;2023-11-22T08:00:55;4.10;99.99
75899;DHT22;64576;50.460;4.866;2023-11-22T08:03:45;3.96;99.99
75899;DHT22;64576;50.460;4.866;2023-11-22T08:06:27;4.14;99.99
75899;DHT22;64576;50.460;4.866;2023-11-22T08:09:15;4.08;99.99
75899;DHT22;64576;50.460;4.866;2023-11-22T08:12:14;4.07;99.99
75899;DHT22;64576;50.460;4.866;2023-11-22T08:14:59;4.05;99.99
75899;DHT22;64576;50.460;4.866;2023-11-22T08:17:50;4.01;99.99
75899;DHT22;64576;50.460;4.866;2023-11-22T08:20:32;4.05;99.99
75899;DHT22;64576;50.460;4.866;2023-11-22T08:23:04;4.15;99.99
75899;DHT22;64576;50.460;4.866;2023-11-22T08:25:33;4.51;99.99
75899;DHT22;64576;50.460;4.866;2023-11-22T08:28:31;4.56;99.99
75899;DHT22;64576;50.460;4.866;2023-11-22T08:31:17;4.55;99.99
75899;DHT22;64576;50.460;4.866;2023-11-22T08:33:57;4.76;99.99
75899;DHT22;64576;50.460;4.866;2023-11-22T08:36:42;4.75;99.99
75899;DHT22;64576;50.460;4.866;2023-11-22T08:39:26;4.81;99.99
75899;DHT22;64576;50.460;4.866;2023-11-22T08:41:58;4.76;99.99
75899;DHT22;64576;50.460;4.866;2023-11-22T08:44:30;4.79;99.99
75899;DHT22;64576;50.460;4.866;2023-11-22T08:47:14;4.58;99.99
75899;DHT22;64576;50.460;4.866;2023-11-22T08:49:59;4.53;99.99
75899;DHT22;64576;50.460;4.866;2023-11-22T08:52:46;4.48;99.99
75899;DHT22;64576;50.460;4.866;2023-11-22T08:55:36;4.48;99.99
75899;DHT22;64576;50.460;4.866;2023-11-22T08:58:31;4.70;99.99
75899;DHT22;64576;50.460;4.866;2023-11-22T09:01:12;4.69;99.27
75899;DHT22;64576;50.460;4.866;2023-11-22T09:03:49;4.84;98.35
75899;DHT22;64576;50.460;4.866;2023-11-22T09:06:38;5.17;98.66
75899;DHT22;64576;50.460;4.866;2023-11-22T09:09:16;5.01;97.45
75899;DHT22;64576;50.460;4.866;2023-11-22T09:11:50;5.45;97.34
75899;DHT22;64576;50.460;4.866;2023-11-22T09:14:43;5.70;97.31
75899;DHT22;64576;50.460;4.866;2023-11-22T09:17:27;5.74;97.20
75899;DHT22;64576;50.460;4.866;2023-11-22T09:20:13;5.67;96.08
75899;DHT22;64576;50.460;4.866;2023-11-22T09:22:56;5.36;95.24
75899;DHT22;64576;50.460;4.866;2023-11-22T09:25:31;5.70;96.61
75899;DHT22;64576;50.460;4.866;2023-11-22T09:28:15;5.62;97.55
75899;DHT22;64576;50.460;4.866;2023-11-22T09:30:49;5.82;96.67
75899;DHT22;64576;50.460;4.866;2023-11-22T09:33:25;5.87;94.85
75899;DHT22;64576;50.460;4.866;2023-11-22T09:35:58;5.92;95.47
75899;DHT22;64576;50.460;4.866;2023-11-22T09:38:52;5.77;94.31
75899;DHT22;64576;50.460;4.866;2023-11-22T09:41:38;5.94;93.78
75899;DHT22;64576;50.460;4.866;2023-11-22T09:44:22;5.97;95.12
75899;DHT22;64576;50.460;4.866;2023-11-22T09:46:58;6.27;95.19
75899;DHT22;64576;50.460;4.866;2023-11-22T09:49:53;6.62;94.36
75899;DHT22;64576;50.460;4.866;2023-11-22T09:52:32;6.32;92.12
75899;DHT22;64576;50.460;4.866;2023-11-22T09:55:12;7.34;93.32
75899;DHT22;64576;50.460;4.866;2023-11-22T09:57:49;8.33;88.35
75899;DHT22;64576;50.460;4.866;2023-11-22T10:00:31;7.40;88.38
75899;DHT22;64576;50.460;4.866;2023-11-22T10:03:20;7.45;90.15
75899;DHT22;64576;50.460;4.866;2023-11-22T10:06:00;6.92;91.58
75899;DHT22;64576;50.460;4.866;2023-11-22T10:08:49;6.92;95.18
75899;DHT22;64576;50.460;4.866;2023-11-22T10:11:40;7.62;88.36
75899;DHT22;64576;50.460;4.866;2023-11-22T10:14:27;7.58;87.29
75899;DHT22;64576;50.460;4.866;2023-11-22T10:17:17;8.40;85.57
75899;DHT22;64576;50.460;4.866;2023-11-22T10:19:53;8.68;86.77
75899;DHT22;64576;50.460;4.866;2023-11-22T10:22:31;8.71;85.27
75899;DHT22;64576;50.460;4.866;2023-11-22T10:25:20;8.56;85.25
75899;DHT22;64576;50.460;4.866;2023-11-22T10:27:51;8.61;86.10
75899;DHT22;64576;50.460;4.866;2023-11-22T10:30:47;8.20;89.23
75899;DHT22;64576;50.460;4.866;2023-11-22T10:33:20;7.44;89.30
75899;DHT22;64576;50.460;4.866;2023-11-22T10:36:08;7.56;90.19
75899;DHT22;64576;50.460;4.866;2023-11-22T10:39:18;7.05;87.52
75899;DHT22;64576;50.460;4.866;2023-11-22T10:41:50;8.03;86.84
75899;DHT22;64576;50.460;4.866;2023-11-22T10:44:40;8.93;82.73
75899;DHT22;64576;50.460;4.866;2023-11-22T10:47:24;8.79;81.92
75899;DHT22;64576;50.460;4.866;2023-11-22T10:50:02;8.82;84.01
75899;DHT22;64576;50.460;4.866;2023-11-22T10:52:42;9.28;81.55
75899;DHT22;64576;50.460;4.866;2023-11-22T10:55:16;11.52;76.69
75899;DHT22;64576;50.460;4.866;2023-11-22T10:58:17;11.90;74.58
75899;DHT22;64576;50.460;4.866;2023-11-22T11:01:11;11.95;71.94
75899;DHT22;64576;50.460;4.866;2023-11-22T11:04:01;11.47;71.58
75899;DHT22;64576;50.460;4.866;2023-11-22T11:06:34;10.30;79.64
75899;DHT22;64576;50.460;4.866;2023-11-22T11:09:13;9.92;83.52
75899;DHT22;64576;50.460;4.866;2023-11-22T11:12:18;10.38;81.74
75899;DHT22;64576;50.460;4.866;2023-11-22T11:15:37;9.69;80.68
75899;DHT22;64576;50.460;4.866;2023-11-22T11:22:00;8.72;86.26
75899;DHT22;64576;50.460;4.866;2023-11-22T11:24:37;7.40;83.90
75899;DHT22;64576;50.460;4.866;2023-11-22T11:27:32;7.31;85.32
75899;DHT22;64576;50.460;4.866;2023-11-22T11:34:05;6.62;86.93
75899;DHT22;64576;50.460;4.866;2023-11-22T11:36:08;6.34;87.39
75899;DHT22;64576;50.460;4.866;2023-11-22T11:38:41;6.56;88.29
75899;DHT22;64576;50.460;4.866;2023-11-22T11:41:34;6.42;88.24
75899;DHT22;64576;50.460;4.866;2023-11-22T11:44:10;6.50;86.73
75899;DHT22;64576;50.460;4.866;2023-11-22T11:46:43;7.49;84.36
75899;DHT22;64576;50.460;4.866;2023-11-22T11:49:22;9.30;79.23
75899;DHT22;64576;50.460;4.866;2023-11-22T11:55:53;11.74;73.24
75899;DHT22;64576;50.460;4.866;2023-11-22T11:58:44;13.43;70.70
75899;DHT22;64576;50.460;4.866;2023-11-22T12:01:35;13.35;70.79
75899;DHT22;64576;50.460;4.866;2023-11-22T12:04:09;13.19;70.23
75899;DHT22;64576;50.460;4.866;2023-11-22T12:06:51;14.68;67.41
75899;DHT22;64576;50.460;4.866;2023-11-22T12:09:44;13.22;66.20
75899;DHT22;64576;50.460;4.866;2023-11-22T12:12:26;13.30;65.36
75899;DHT22;64576;50.460;4.866;2023-11-22T12:15:18;12.91;70.24
75899;DHT22;64576;50.460;4.866;2023-11-22T12:17:44;12.44;68.05
75899;DHT22;64576;50.460;4.866;2023-11-22T12:20:14;11.58;71.56
75899;DHT22;64576;50.460;4.866;2023-11-22T12:22:41;11.78;68.10
75899;DHT22;64576;50.460;4.866;2023-11-22T12:25:07;11.92;71.26
75899;DHT22;64576;50.460;4.866;2023-11-22T12:27:32;10.68;72.50
75899;DHT22;64576;50.460;4.866;2023-11-22T12:29:58;10.51;74.33
75899;DHT22;64576;50.460;4.866;2023-11-22T12:32:24;10.64;75.15
75899;DHT22;64576;50.460;4.866;2023-11-22T12:34:50;10.72;73.86
75899;DHT22;64576;50.460;4.866;2023-11-22T12:37:20;10.65;72.97
75899;DHT22;64576;50.460;4.866;2023-11-22T12:39:47;10.04;72.63
75899;DHT22;64576;50.460;4.866;2023-11-22T12:42:13;9.81;75.39
75899;DHT22;64576;50.460;4.866;2023-11-22T12:44:51;9.65;74.87
75899;DHT22;64576;50.460;4.866;2023-11-22T12:47:33;9.65;78.42
75899;DHT22;64576;50.460;4.866;2023-11-22T12:50:02;9.11;75.11
75899;DHT22;64576;50.460;4.866;2023-11-22T12:52:32;9.47;76.59
75899;DHT22;64576;50.460;4.866;2023-11-22T12:54:58;9.06;77.58
75899;DHT22;64576;50.460;4.866;2023-11-22T12:57:24;8.90;74.85
75899;DHT22;64576;50.460;4.866;2023-11-22T12:59:50;8.89;76.45
75899;DHT22;64576;50.460;4.866;2023-11-22T13:02:16;8.75;77.63
75899;DHT22;64576;50.460;4.866;2023-11-22T13:04:42;8.80;77.74
75899;DHT22;64576;50.460;4.866;2023-11-22T13:07:08;9.16;76.97
75899;DHT22;64576;50.460;4.866;2023-11-22T13:09:34;8.96;77.03
75899;DHT22;64576;50.460;4.866;2023-11-22T13:12:01;8.92;78.11
75899;DHT22;64576;50.460;4.866;2023-11-22T13:14:26;9.01;77.93
75899;DHT22;64576;50.460;4.866;2023-11-22T13:16:57;9.26;78.09
75899;DHT22;64576;50.460;4.866;2023-11-22T13:19:22;9.30;78.90
75899;DHT22;64576;50.460;4.866;2023-11-22T13:21:48;9.23;79.22
75899;DHT22;64576;50.460;4.866;2023-11-22T13:24:14;9.27;78.23
75899;DHT22;64576;50.460;4.866;2023-11-22T13:26:43;9.54;77.04
75899;DHT22;64576;50.460;4.866;2023-11-22T13:29:08;10.03;75.58
75899;DHT22;64576;50.460;4.866;2023-11-22T13:31:34;9.87;76.20
75899;DHT22;64576;50.460;4.866;2023-11-22T13:33:59;9.83;73.66
75899;DHT22;64576;50.460;4.866;2023-11-22T13:36:24;9.30;74.31
75899;DHT22;64576;50.460;4.866;2023-11-22T13:38:50;11.22;71.69
75899;DHT22;64576;50.460;4.866;2023-11-22T13:41:15;12.09;68.88
75899;DHT22;64576;50.460;4.866;2023-11-22T13:43:41;12.55;67.00
75899;DHT22;64576;50.460;4.866;2023-11-22T13:46:06;14.18;62.51
75899;DHT22;64576;50.460;4.866;2023-11-22T13:48:35;12.48;64.60
75899;DHT22;64576;50.460;4.866;2023-11-22T13:51:01;12.64;65.89
75899;DHT22;64576;50.460;4.866;2023-11-22T13:53:28;13.68;66.15
75899;DHT22;64576;50.460;4.866;2023-11-22T13:55:58;12.79;63.68
75899;DHT22;64576;50.460;4.866;2023-11-22T13:58:26;13.00;64.42
75899;DHT22;64576;50.460;4.866;2023-11-22T14:00:51;15.44;60.07
75899;DHT22;64576;50.460;4.866;2023-11-22T14:03:19;14.73;59.20
75899;DHT22;64576;50.460;4.866;2023-11-22T14:05:47;15.74;59.88
75899;DHT22;64576;50.460;4.866;2023-11-22T14:08:13;15.15;57.96
75899;DHT22;64576;50.460;4.866;2023-11-22T14:10:40;13.13;60.33
75899;DHT22;64576;50.460;4.866;2023-11-22T14:13:06;12.71;61.86
75899;DHT22;64576;50.460;4.866;2023-11-22T14:15:33;11.17;67.88
75899;DHT22;64576;50.460;4.866;2023-11-22T14:17:59;10.40;69.94
75899;DHT22;64576;50.460;4.866;2023-11-22T14:20:25;9.10;74.39
75899;DHT22;64576;50.460;4.866;2023-11-22T14:22:50;8.40;77.92
75899;DHT22;64576;50.460;4.866;2023-11-22T14:25:15;7.56;79.52
75899;DHT22;64576;50.460;4.866;2023-11-22T14:27:43;6.99;81.34
75899;DHT22;64576;50.460;4.866;2023-11-22T14:30:10;6.73;82.85
75899;DHT22;64576;50.460;4.866;2023-11-22T14:32:37;6.61;83.77
75899;DHT22;64576;50.460;4.866;2023-11-22T14:35:03;6.52;84.33
75899;DHT22;64576;50.460;4.866;2023-11-22T14:37:29;6.39;84.93
75899;DHT22;64576;50.460;4.866;2023-11-22T14:40:07;6.38;85.63
75899;DHT22;64576;50.460;4.866;2023-11-22T14:42:42;6.25;85.49
75899;DHT22;64576;50.460;4.866;2023-11-22T14:45:13;6.18;85.88
75899;DHT22;64576;50.460;4.866;2023-11-22T14:47:39;6.17;86.38
75899;DHT22;64576;50.460;4.866;2023-11-22T14:50:06;6.16;86.41
75899;DHT22;64576;50.460;4.866;2023-11-22T14:52:33;6.11;86.33
75899;DHT22;64576;50.460;4.866;2023-11-22T14:54:59;6.07;87.56
75899;DHT22;64576;50.460;4.866;2023-11-22T14:57:26;6.03;87.31
75899;DHT22;64576;50.460;4.866;2023-11-22T14:59:54;6.11;87.41
75899;DHT22;64576;50.460;4.866;2023-11-22T15:02:21;6.04;87.70
75899;DHT22;64576;50.460;4.866;2023-11-22T15:04:47;6.07;87.78
75899;DHT22;64576;50.460;4.866;2023-11-22T15:07:12;5.97;87.70
75899;DHT22;64576;50.460;4.866;2023-11-22T15:09:40;6.01;87.64
75899;DHT22;64576;50.460;4.866;2023-11-22T15:12:05;5.99;87.72
75899;DHT22;64576;50.460;4.866;2023-11-22T15:14:31;6.01;87.38
75899;DHT22;64576;50.460;4.866;2023-11-22T15:16:58;5.94;87.26
75899;DHT22;64576;50.460;4.866;2023-11-22T15:19:26;5.82;87.68
75899;DHT22;64576;50.460;4.866;2023-11-22T15:21:53;5.74;87.61
75899;DHT22;64576;50.460;4.866;2023-11-22T15:24:19;5.80;88.49
75899;DHT22;64576;50.460;4.866;2023-11-22T15:26:47;5.72;88.22
75899;DHT22;64576;50.460;4.866;2023-11-22T15:29:15;5.73;87.93
75899;DHT22;64576;50.460;4.866;2023-11-22T15:31:43;5.72;88.14
75899;DHT22;64576;50.460;4.866;2023-11-22T15:34:09;5.72;88.33
75899;DHT22;64576;50.460;4.866;2023-11-22T15:36:34;5.67;88.49
75899;DHT22;64576;50.460;4.866;2023-11-22T15:39:00;5.69;88.48
75899;DHT22;64576;50.460;4.866;2023-11-22T15:41:26;5.70;89.15
75899;DHT22;64576;50.460;4.866;2023-11-22T15:43:52;5.65;88.91
75899;DHT22;64576;50.460;4.866;2023-11-22T15:46:17;5.63;89.38
75899;DHT22;64576;50.460;4.866;2023-11-22T15:48:44;5.58;89.37
75899;DHT22;64576;50.460;4.866;2023-11-22T15:51:10;5.56;89.30
75899;DHT22;64576;50.460;4.866;2023-11-22T15:53:37;5.55;89.17
75899;DHT22;64576;50.460;4.866;2023-11-22T15:56:03;5.59;89.43
75899;DHT22;64576;50.460;4.866;2023-11-22T15:58:29;5.62;89.41
75899;DHT22;64576;50.460;4.866;2023-11-22T16:00:54;5.60;89.83
75899;DHT22;64576;50.460;4.866;2023-11-22T16:03:21;5.66;89.52
75899;DHT22;64576;50.460;4.866;2023-11-22T16:05:47;5.60;89.83
75899;DHT22;64576;50.460;4.866;2023-11-22T16:08:14;5.58;90.15
75899;DHT22;64576;50.460;4.866;2023-11-22T16:10:40;5.54;90.12
75899;DHT22;64576;50.460;4.866;2023-11-22T16:13:06;5.55;90.36
75899;DHT22;64576;50.460;4.866;2023-11-22T16:15:32;5.52;90.73
75899;DHT22;64576;50.460;4.866;2023-11-22T16:17:57;5.54;90.86